Urupa, Brazil
Current Conditions -  °F | °C
As of 8:00 AM on Wednesday 22 Oct 2014 (Local Time) from SBVH Reporting Station
Clear Clear  
Wind Chill: 79°   Ceiling: Unl
Heat Index: 82°   Visibility: 6mi
Dew Point: 72°   Wind: 6mph
Humidity: 78%   Direction: 170°S
Pressure: 30"   Gusts: NA
Location:  11.14°S, 62.36°W
Report Text: SBVH 221200Z 17005KT CAVOK 26/22 Q1016
Loading
Personal Weather Stations






























Interactive Weather Map
Tropical Storm Tracking
New forecast layout! Learn more

10-Day Weather Forecast

Advertisements
Track Severe Weather on mobile